createdAt,value
2022-09-21T00:02:14.689Z,4.57
2022-09-21T00:04:45.362Z,4.72
2022-09-21T00:07:15.406Z,3.33
2022-09-21T00:09:45.438Z,4.13
2022-09-21T00:12:16.787Z,3.63
2022-09-21T00:14:46.933Z,6.03
2022-09-21T00:17:17.604Z,5.32
2022-09-21T00:19:47.630Z,4.10
2022-09-21T00:22:18.686Z,4.10
2022-09-21T00:24:48.749Z,3.88
2022-09-21T00:27:21.626Z,4.30
2022-09-21T00:29:51.688Z,3.65
2022-09-21T00:32:21.702Z,3.75
2022-09-21T00:34:52.637Z,4.13
2022-09-21T00:37:23.005Z,4.80
2022-09-21T00:39:53.156Z,4.65
2022-09-21T00:42:24.072Z,4.80
2022-09-21T00:44:54.387Z,4.88
2022-09-21T00:47:33.422Z,5.50
2022-09-21T00:50:04.563Z,5.43
2022-09-21T00:52:35.523Z,16.55
2022-09-21T00:55:08.673Z,9.55
2022-09-21T00:57:38.703Z,15.70
2022-09-21T01:00:12.399Z,6.68
2022-09-21T01:02:43.957Z,5.75
2022-09-21T01:05:14.979Z,4.68
2022-09-21T01:07:48.751Z,8.43
2022-09-21T01:10:19.678Z,9.85
2022-09-21T01:12:50.603Z,6.82
2022-09-21T01:15:20.774Z,7.80
2022-09-21T01:17:50.810Z,7.00
2022-09-21T01:20:37.135Z,8.05
2022-09-21T01:23:31.630Z,7.45
2022-09-21T01:26:11.578Z,4.90
2022-09-21T01:29:00.171Z,5.22
2022-09-21T01:31:33.645Z,9.20
2022-09-21T01:34:04.572Z,5.70
2022-09-21T01:36:34.613Z,4.63
2022-09-21T01:39:06.128Z,7.43
2022-09-21T01:41:36.686Z,4.65
2022-09-21T01:44:09.731Z,6.53
2022-09-21T01:46:40.073Z,9.75
2022-09-21T01:49:18.261Z,8.40
2022-09-21T01:51:50.819Z,5.22
2022-09-21T01:54:22.577Z,5.25
2022-09-21T01:56:56.917Z,4.47
2022-09-21T01:59:30.468Z,3.67
2022-09-21T02:02:02.090Z,7.15
2022-09-21T02:04:32.359Z,8.63
2022-09-21T02:07:02.355Z,7.82
2022-09-21T02:09:32.405Z,11.30
2022-09-21T02:12:02.537Z,4.88
2022-09-21T02:14:34.735Z,7.32
2022-09-21T02:17:05.926Z,8.00
2022-09-21T02:19:39.386Z,6.43
2022-09-21T02:22:13.861Z,10.32
2022-09-21T02:24:48.133Z,4.88
2022-09-21T02:27:27.393Z,6.32
2022-09-21T02:30:06.619Z,9.68
2022-09-21T02:32:42.973Z,7.07
2022-09-21T02:35:19.093Z,4.63
2022-09-21T02:38:18.836Z,5.72
2022-09-21T02:40:55.340Z,11.18
2022-09-21T02:43:37.788Z,10.52
2022-09-21T02:46:16.829Z,12.68
2022-09-21T02:48:48.640Z,5.55
2022-09-21T02:51:23.298Z,7.55
2022-09-21T02:53:53.456Z,6.93
2022-09-21T02:56:23.569Z,13.18
2022-09-21T02:58:55.526Z,6.80
2022-09-21T03:03:55.830Z,6.50
2022-09-21T03:06:26.172Z,9.75
2022-09-21T03:08:56.300Z,8.45
2022-09-21T03:11:26.808Z,9.02
2022-09-21T03:13:57.438Z,6.30
2022-09-21T03:16:27.643Z,7.65
2022-09-21T03:18:58.170Z,4.53
2022-09-21T03:21:28.655Z,3.78
2022-09-21T03:23:58.691Z,6.45
2022-09-21T03:26:28.855Z,9.65
2022-09-21T03:28:58.896Z,14.23
2022-09-21T03:31:29.394Z,3.88
2022-09-21T03:33:59.786Z,8.77
2022-09-21T03:36:29.807Z,9.88
2022-09-21T03:38:59.871Z,4.85
2022-09-21T03:41:30.184Z,6.78
2022-09-21T03:44:00.225Z,6.75
2022-09-21T03:46:30.541Z,6.88
2022-09-21T03:49:00.515Z,4.32
2022-09-21T03:51:32.723Z,4.68
2022-09-21T03:54:02.866Z,6.65
2022-09-21T03:56:32.917Z,6.25
2022-09-21T03:59:02.987Z,5.93
2022-09-21T04:01:33.192Z,5.03
2022-09-21T04:04:03.407Z,3.75
2022-09-21T04:06:33.491Z,4.47
2022-09-21T04:09:03.724Z,5.97
2022-09-21T04:11:34.530Z,4.47
2022-09-21T04:14:04.500Z,3.15
2022-09-21T04:16:34.580Z,4.10
2022-09-21T04:19:04.988Z,5.93
2022-09-21T04:21:35.363Z,4.53
2022-09-21T04:24:05.484Z,4.38
2022-09-21T04:26:36.126Z,5.57
2022-09-21T04:29:06.670Z,4.80
2022-09-21T04:31:36.931Z,2.90
2022-09-21T04:34:07.013Z,6.03
2022-09-21T04:36:37.131Z,7.10
2022-09-21T04:39:07.705Z,3.60
2022-09-21T04:41:37.807Z,3.47
2022-09-21T04:44:07.891Z,5.18
2022-09-21T04:46:39.775Z,4.53
2022-09-21T04:49:10.059Z,4.07
2022-09-21T04:51:40.297Z,4.50
2022-09-21T04:54:10.321Z,3.28
2022-09-21T04:56:52.626Z,7.97
2022-09-21T04:59:25.403Z,4.90
2022-09-21T05:01:55.391Z,3.97
2022-09-21T05:04:25.441Z,4.82
2022-09-21T05:06:55.455Z,4.38
2022-09-21T05:09:43.684Z,3.50
2022-09-21T05:12:13.697Z,3.72
2022-09-21T05:14:46.167Z,6.15
2022-09-21T05:17:16.229Z,2.85
2022-09-21T05:19:46.295Z,3.67
2022-09-21T05:22:16.316Z,4.18
2022-09-21T05:24:46.938Z,2.55
2022-09-21T05:27:16.923Z,3.95
2022-09-21T05:29:47.132Z,3.05
2022-09-21T05:32:23.143Z,3.88
2022-09-21T05:35:09.786Z,3.97
2022-09-21T05:37:40.051Z,5.15
2022-09-21T05:40:11.303Z,7.57
2022-09-21T05:42:41.617Z,5.88
2022-09-21T05:45:15.688Z,3.00
2022-09-21T05:47:55.601Z,4.63
2022-09-21T05:50:28.138Z,6.43
2022-09-21T05:53:06.071Z,3.83
2022-09-21T05:55:39.439Z,2.45
2022-09-21T05:58:18.939Z,3.53
2022-09-21T06:00:53.870Z,4.80
2022-09-21T06:03:28.379Z,5.10
2022-09-21T06:05:59.330Z,3.25
2022-09-21T06:08:29.580Z,7.15
2022-09-21T06:10:59.756Z,6.05
2022-09-21T06:13:29.843Z,3.60
2022-09-21T06:15:59.924Z,3.97
2022-09-21T06:18:30.028Z,4.38
2022-09-21T06:21:00.046Z,4.60
2022-09-21T06:23:30.052Z,4.55
2022-09-21T06:26:00.099Z,3.83
2022-09-21T06:28:30.882Z,5.47
2022-09-21T06:31:01.281Z,3.97
2022-09-21T06:33:31.342Z,3.70
2022-09-21T06:36:01.824Z,4.60
2022-09-21T06:38:32.172Z,2.92
2022-09-21T06:41:05.600Z,5.25
2022-09-21T06:43:35.684Z,2.65
2022-09-21T06:46:05.921Z,6.47
2022-09-21T06:48:36.627Z,5.13
2022-09-21T06:51:07.257Z,3.08
2022-09-21T06:53:37.387Z,7.70
2022-09-21T06:56:08.423Z,5.90
2022-09-21T06:58:38.921Z,4.20
2022-09-21T07:01:13.298Z,3.20
2022-09-21T07:03:44.487Z,5.43
2022-09-21T07:06:16.697Z,6.32
2022-09-21T07:11:38.751Z,7.82
2022-09-21T07:14:09.238Z,4.68
2022-09-21T07:16:39.407Z,3.70
2022-09-21T07:19:11.573Z,3.78
2022-09-21T07:21:42.356Z,6.47
2022-09-21T07:24:12.779Z,7.38
2022-09-21T07:26:45.607Z,10.13
2022-09-21T07:29:15.776Z,2.92
2022-09-21T07:31:46.430Z,6.43
2022-09-21T07:34:16.615Z,6.22
2022-09-21T07:36:46.796Z,3.33
2022-09-21T07:39:16.963Z,5.82
2022-09-21T07:41:47.114Z,7.97
2022-09-21T07:44:17.354Z,16.60
2022-09-21T07:46:48.543Z,7.63
2022-09-21T07:49:18.835Z,3.42
2022-09-21T07:51:49.460Z,7.57
2022-09-21T07:54:19.824Z,2.78
2022-09-21T07:57:09.836Z,6.63
2022-09-21T07:59:40.291Z,4.85
2022-09-21T08:02:10.639Z,3.95
2022-09-21T08:04:41.137Z,4.85
2022-09-21T08:07:11.709Z,3.53
2022-09-21T08:09:43.126Z,5.78
2022-09-21T08:12:18.860Z,4.78
2022-09-21T08:14:49.415Z,2.83
2022-09-21T08:17:19.463Z,7.65
2022-09-21T08:19:49.633Z,6.90
2022-09-21T08:22:20.100Z,3.30
2022-09-21T08:24:50.353Z,3.22
2022-09-21T08:27:21.554Z,3.20
2022-09-21T08:29:51.855Z,6.33
2022-09-21T08:32:39.743Z,3.70
2022-09-21T08:35:12.759Z,4.22
2022-09-21T08:37:43.438Z,5.30
2022-09-21T08:40:13.663Z,4.45
2022-09-21T08:43:13.390Z,4.18
2022-09-21T08:45:45.044Z,2.95
2022-09-21T08:48:36.803Z,3.90
2022-09-21T08:51:09.263Z,4.38
2022-09-21T08:56:11.256Z,2.28
2022-09-21T08:58:44.685Z,2.88
2022-09-21T09:01:17.815Z,2.08
2022-09-21T09:03:53.938Z,3.42
2022-09-21T09:06:27.067Z,3.88
2022-09-21T09:08:58.840Z,6.40
2022-09-21T09:11:41.256Z,3.23
2022-09-21T09:14:29.636Z,3.75
2022-09-21T09:17:17.991Z,3.65
2022-09-21T09:19:48.614Z,3.58
2022-09-21T09:22:20.442Z,3.22
2022-09-21T09:24:51.800Z,1.80
2022-09-21T09:27:23.447Z,4.32
2022-09-21T09:30:02.131Z,5.60
2022-09-21T09:33:05.457Z,3.17
2022-09-21T09:35:42.816Z,3.78
2022-09-21T09:38:18.571Z,4.53
2022-09-21T09:40:56.177Z,4.32
2022-09-21T09:43:42.111Z,3.83
2022-09-21T09:46:18.203Z,5.72
2022-09-21T09:48:53.348Z,2.58
2022-09-21T09:51:24.991Z,3.75
2022-09-21T09:53:55.372Z,4.00
2022-09-21T09:56:25.481Z,3.47
2022-09-21T09:58:56.739Z,3.08
2022-09-21T10:01:47.623Z,5.40
2022-09-21T10:04:19.102Z,2.65
2022-09-21T10:06:49.496Z,2.13
2022-09-21T10:09:25.778Z,4.07
2022-09-21T10:11:57.638Z,7.85
2022-09-21T10:14:28.060Z,4.22
2022-09-21T10:16:58.547Z,3.35
2022-09-21T10:19:29.153Z,6.90
2022-09-21T10:22:00.491Z,5.30
2022-09-21T10:24:37.077Z,18.60
2022-09-21T10:27:15.013Z,10.63
2022-09-21T10:29:45.792Z,15.57
2022-09-21T10:32:17.500Z,28.42
2022-09-21T10:35:06.436Z,15.70
2022-09-21T10:37:38.350Z,14.48
2022-09-21T10:40:18.669Z,8.73
2022-09-21T10:42:49.037Z,11.05
2022-09-21T10:45:20.302Z,17.60
2022-09-21T10:48:09.373Z,6.87
2022-09-21T10:50:40.097Z,12.15
2022-09-21T10:53:13.190Z,10.52
2022-09-21T10:55:58.551Z,34.83
2022-09-21T10:58:34.668Z,33.28
2022-09-21T11:01:15.997Z,31.65
2022-09-21T11:04:12.259Z,34.10
2022-09-21T11:06:47.047Z,35.03
2022-09-21T11:09:37.032Z,24.27
2022-09-21T11:12:13.927Z,22.38
2022-09-21T11:15:04.325Z,17.15
2022-09-21T11:17:43.336Z,18.20
2022-09-21T11:20:31.827Z,18.08
2022-09-21T11:23:21.938Z,21.77
2022-09-21T11:26:06.754Z,14.57
2022-09-21T11:28:50.257Z,12.45
2022-09-21T11:31:35.439Z,13.55
2022-09-21T11:34:11.726Z,10.73
2022-09-21T11:36:51.068Z,8.77
2022-09-21T11:39:27.349Z,14.88
2022-09-21T11:42:03.577Z,10.63
2022-09-21T11:45:00.363Z,9.52
2022-09-21T11:47:39.663Z,10.23
2022-09-21T11:50:30.156Z,9.38
2022-09-21T11:53:12.844Z,7.70
2022-09-21T11:55:48.798Z,7.20
2022-09-21T11:58:19.848Z,8.50
2022-09-21T12:00:51.237Z,11.70
2022-09-21T12:03:31.390Z,8.70
2022-09-21T12:06:05.068Z,6.65
2022-09-21T12:08:44.590Z,12.35
2022-09-21T12:11:15.335Z,7.13
2022-09-21T12:13:51.797Z,8.65
2022-09-21T12:16:22.130Z,7.40
2022-09-21T12:19:05.578Z,4.38
2022-09-21T12:21:37.291Z,9.20
2022-09-21T12:24:31.282Z,7.97
2022-09-21T12:27:20.635Z,8.48
2022-09-21T12:29:54.174Z,7.57
2022-09-21T12:32:24.206Z,8.50
2022-09-21T12:34:56.891Z,4.88
2022-09-21T12:37:36.257Z,5.30
2022-09-21T12:40:07.347Z,5.10
2022-09-21T12:42:46.195Z,10.20
2022-09-21T12:45:27.738Z,5.80
2022-09-21T12:48:01.386Z,6.60
2022-09-21T12:50:35.398Z,6.18
2022-09-21T12:53:05.635Z,6.88
2022-09-21T12:55:37.407Z,4.75
2022-09-21T12:58:16.219Z,4.10
2022-09-21T13:01:05.200Z,7.53
2022-09-21T13:03:45.640Z,4.88
2022-09-21T13:06:25.021Z,5.85
2022-09-21T13:09:01.275Z,4.55
2022-09-21T13:11:32.414Z,5.90
2022-09-21T13:14:06.954Z,7.00
2022-09-21T13:16:40.644Z,4.00
2022-09-21T13:19:24.659Z,4.10
2022-09-21T13:22:17.807Z,6.25
2022-09-21T13:25:08.094Z,4.63
2022-09-21T13:28:20.761Z,5.15
2022-09-21T13:31:30.128Z,4.80
2022-09-21T13:34:13.292Z,4.45
2022-09-21T13:36:45.288Z,4.40
2022-09-21T13:39:16.749Z,5.07
2022-09-21T13:42:03.804Z,4.80
2022-09-21T13:44:42.417Z,5.20
2022-09-21T13:47:13.768Z,4.88
2022-09-21T13:49:44.117Z,3.92
2022-09-21T13:52:18.077Z,7.15
2022-09-21T13:54:48.526Z,4.50
2022-09-21T13:57:19.445Z,3.85
2022-09-21T13:59:51.102Z,5.68
2022-09-21T14:02:27.506Z,5.50
2022-09-21T14:04:59.948Z,3.97
2022-09-21T14:07:33.031Z,4.63
2022-09-21T14:10:05.388Z,6.50
2022-09-21T14:15:20.829Z,4.05
2022-09-21T14:18:09.295Z,4.68
2022-09-21T14:20:39.705Z,3.65
2022-09-21T14:23:20.095Z,5.78
2022-09-21T14:25:57.193Z,3.40
2022-09-21T14:28:30.070Z,4.05
2022-09-21T14:31:01.763Z,3.42
2022-09-21T14:33:36.502Z,3.53
2022-09-21T14:36:10.623Z,15.05
2022-09-21T14:38:54.319Z,6.07
2022-09-21T14:41:26.140Z,3.33
2022-09-21T14:43:57.909Z,5.47
2022-09-21T14:46:41.660Z,7.45
2022-09-21T14:49:15.366Z,7.28
2022-09-21T14:54:45.261Z,6.53
2022-09-21T14:57:36.799Z,4.70
2022-09-21T15:00:16.235Z,10.65
2022-09-21T15:02:46.718Z,5.97
2022-09-21T15:05:19.901Z,3.95
2022-09-21T15:08:26.972Z,3.53
2022-09-21T15:11:16.034Z,3.28
2022-09-21T15:14:02.236Z,7.97
2022-09-21T15:16:37.055Z,13.25
2022-09-21T15:19:25.926Z,13.40
2022-09-21T15:21:55.993Z,13.77
2022-09-21T15:24:26.167Z,9.80
2022-09-21T15:26:57.120Z,8.40
2022-09-21T15:29:28.256Z,13.85
2022-09-21T15:31:58.430Z,10.80
2022-09-21T15:34:29.035Z,9.48
2022-09-21T15:37:07.983Z,13.40
2022-09-21T15:39:38.193Z,9.18
2022-09-21T15:42:21.049Z,6.10
2022-09-21T15:44:53.026Z,10.75
2022-09-21T15:47:23.875Z,8.80
2022-09-21T15:49:55.181Z,7.72
2022-09-21T15:52:39.212Z,10.05
2022-09-21T15:55:22.643Z,7.40
2022-09-21T15:57:54.348Z,8.07
2022-09-21T16:00:24.853Z,10.38
2022-09-21T16:03:05.453Z,8.43
2022-09-21T16:05:44.506Z,9.18
2022-09-21T16:08:41.030Z,7.13
2022-09-21T16:11:14.503Z,9.43
2022-09-21T16:14:03.500Z,6.72
2022-09-21T16:16:33.950Z,9.32
2022-09-21T16:19:05.900Z,7.57
2022-09-21T16:21:38.694Z,6.43
2022-09-21T16:24:22.055Z,10.15
2022-09-21T16:27:00.034Z,9.65
2022-09-21T16:29:39.483Z,6.53
2022-09-21T16:32:21.856Z,8.93
2022-09-21T16:34:53.106Z,4.45
2022-09-21T16:37:26.356Z,7.23
2022-09-21T16:40:00.413Z,5.45
2022-09-21T16:42:34.010Z,7.18
2022-09-21T16:45:05.517Z,10.10
2022-09-21T16:47:35.867Z,8.52
2022-09-21T16:50:09.333Z,7.25
2022-09-21T16:52:39.753Z,9.32
2022-09-21T16:55:10.215Z,6.63
2022-09-21T16:57:40.185Z,8.80
2022-09-21T17:00:21.900Z,9.13
2022-09-21T17:02:52.277Z,7.57
2022-09-21T17:05:22.707Z,6.65
2022-09-21T17:07:53.195Z,12.60
2022-09-21T17:10:25.444Z,4.88
2022-09-21T17:12:55.619Z,5.85
2022-09-21T17:15:25.790Z,7.82
2022-09-21T17:17:55.812Z,4.97
2022-09-21T17:20:28.168Z,8.88
2022-09-21T17:22:59.277Z,6.63
2022-09-21T17:25:31.106Z,6.38
2022-09-21T17:28:01.757Z,5.30
2022-09-21T17:30:33.103Z,5.30
2022-09-21T17:33:03.216Z,8.00
2022-09-21T17:35:39.964Z,5.53
2022-09-21T17:38:14.179Z,6.15
2022-09-21T17:40:44.862Z,4.75
2022-09-21T17:43:34.439Z,6.65
2022-09-21T17:46:07.286Z,5.50
2022-09-21T17:48:37.972Z,8.05
2022-09-21T17:51:08.919Z,5.03
2022-09-21T17:53:39.238Z,6.10
2022-09-21T17:56:15.123Z,6.93
2022-09-21T17:58:45.169Z,5.65
2022-09-21T18:01:53.894Z,4.47
2022-09-21T18:04:24.222Z,3.63
2022-09-21T18:06:54.675Z,7.35
2022-09-21T18:09:25.164Z,7.68
2022-09-21T18:12:03.051Z,3.45
2022-09-21T18:14:54.563Z,6.43
2022-09-21T18:17:42.759Z,5.53
2022-09-21T18:20:12.831Z,6.88
2022-09-21T18:23:00.812Z,6.85
2022-09-21T18:25:30.955Z,4.50
2022-09-21T18:28:01.848Z,5.35
2022-09-21T18:30:32.084Z,3.80
2022-09-21T18:33:11.888Z,3.28
2022-09-21T18:36:00.516Z,3.38
2022-09-21T18:38:40.783Z,6.03
2022-09-21T18:41:17.312Z,5.10
2022-09-21T18:44:00.155Z,7.70
2022-09-21T18:46:56.962Z,4.15
2022-09-21T18:49:28.045Z,5.10
2022-09-21T18:52:08.513Z,5.93
2022-09-21T18:54:39.101Z,5.95
2022-09-21T18:57:16.185Z,2.85
2022-09-21T18:59:46.447Z,4.53
2022-09-21T19:02:18.406Z,4.63
2022-09-21T19:04:50.511Z,3.33
2022-09-21T19:07:23.391Z,4.38
2022-09-21T19:10:00.192Z,5.80
2022-09-21T19:12:35.580Z,4.68
2022-09-21T19:15:42.422Z,3.70
2022-09-21T19:18:21.356Z,4.68
2022-09-21T19:21:00.852Z,5.10
2022-09-21T19:23:31.110Z,5.40
2022-09-21T19:26:01.374Z,4.38
2022-09-21T19:28:31.383Z,4.10
2022-09-21T19:31:05.331Z,4.07
2022-09-21T19:33:51.632Z,4.38
2022-09-21T19:36:22.176Z,4.93
2022-09-21T19:38:52.469Z,3.95
2022-09-21T19:41:28.152Z,3.10
2022-09-21T19:44:01.975Z,3.95
2022-09-21T19:46:36.583Z,5.50
2022-09-21T19:49:08.648Z,3.25
2022-09-21T19:51:52.066Z,5.30
2022-09-21T19:54:44.465Z,3.10
2022-09-21T19:57:36.556Z,3.20
2022-09-21T20:00:20.227Z,2.67
2022-09-21T20:02:56.831Z,3.10
2022-09-21T20:05:39.617Z,2.65
2022-09-21T20:08:20.157Z,3.58
2022-09-21T20:10:55.673Z,4.20
2022-09-21T20:13:37.904Z,2.80
2022-09-21T20:16:19.322Z,4.20
2022-09-21T20:18:55.259Z,6.50
2022-09-21T20:21:25.334Z,2.22
2022-09-21T20:23:55.963Z,2.45
2022-09-21T20:26:29.817Z,4.35
2022-09-21T20:29:00.040Z,2.83
2022-09-21T20:31:30.145Z,4.20
2022-09-21T20:34:00.208Z,3.13
2022-09-21T20:36:31.183Z,2.38
2022-09-21T20:39:02.204Z,3.30
2022-09-21T20:41:32.302Z,2.60
2022-09-21T20:44:03.110Z,3.50
2022-09-21T20:46:33.314Z,4.05
2022-09-21T20:49:06.626Z,4.30
2022-09-21T20:51:37.066Z,2.75
2022-09-21T20:54:07.870Z,2.22
2022-09-21T20:56:38.192Z,2.92
2022-09-21T20:59:08.361Z,2.30
2022-09-21T21:01:38.604Z,2.83
2022-09-21T21:04:08.728Z,3.90
2022-09-21T21:06:38.990Z,2.90
2022-09-21T21:09:09.066Z,1.48
2022-09-21T21:11:39.096Z,4.20
2022-09-21T21:14:09.588Z,1.23
2022-09-21T21:16:39.675Z,4.43
2022-09-21T21:19:09.841Z,2.17
2022-09-21T21:21:40.000Z,1.90
2022-09-21T21:24:28.362Z,2.45
2022-09-21T21:27:02.268Z,3.13
2022-09-21T21:29:34.299Z,4.07
2022-09-21T21:32:07.270Z,2.78
2022-09-21T21:34:38.170Z,3.92
2022-09-21T21:37:08.295Z,3.03
2022-09-21T21:39:38.962Z,6.07
2022-09-21T21:42:09.068Z,2.15
2022-09-21T21:44:39.205Z,3.75
2022-09-21T21:47:37.693Z,2.72
2022-09-21T21:50:00.937Z,2.90
2022-09-21T21:52:31.638Z,2.83
2022-09-21T21:55:01.651Z,3.03
2022-09-21T21:57:32.134Z,4.22
2022-09-21T22:00:03.055Z,3.50
2022-09-21T22:02:34.822Z,1.98
2022-09-21T22:05:05.183Z,1.70
2022-09-21T22:07:35.228Z,2.42
2022-09-21T22:10:06.090Z,2.45
2022-09-21T22:12:36.851Z,2.05
2022-09-21T22:15:07.066Z,1.92
2022-09-21T22:17:37.525Z,2.28
2022-09-21T22:20:08.861Z,3.05
2022-09-21T22:22:38.907Z,3.13
2022-09-21T22:25:09.590Z,1.52
2022-09-21T22:27:39.792Z,2.15
2022-09-21T22:30:11.820Z,1.75
2022-09-21T22:32:42.328Z,2.78
2022-09-21T22:35:12.680Z,1.85
2022-09-21T22:37:42.680Z,3.72
2022-09-21T22:40:15.183Z,3.08
2022-09-21T22:42:45.201Z,1.73
2022-09-21T22:45:15.545Z,1.55
2022-09-21T22:47:47.871Z,1.55
2022-09-21T22:50:18.890Z,3.20
2022-09-21T22:52:49.185Z,2.28
2022-09-21T22:55:19.373Z,2.25
2022-09-21T22:57:50.671Z,6.22
2022-09-21T23:00:21.878Z,2.90
2022-09-21T23:02:55.554Z,3.15
2022-09-21T23:05:26.189Z,2.97
2022-09-21T23:07:56.389Z,2.33
2022-09-21T23:10:27.859Z,3.08
2022-09-21T23:12:59.265Z,4.45
2022-09-21T23:15:32.436Z,2.87
2022-09-21T23:18:02.641Z,1.40
2022-09-21T23:20:32.656Z,2.78
2022-09-21T23:23:02.698Z,3.95
2022-09-21T23:25:33.321Z,3.83
2022-09-21T23:28:03.446Z,2.33
2022-09-21T23:30:33.863Z,3.13
2022-09-21T23:33:04.132Z,2.38
2022-09-21T23:35:34.292Z,2.85
2022-09-21T23:38:04.389Z,4.22
2022-09-21T23:40:34.459Z,3.00
2022-09-21T23:43:04.586Z,5.95
2022-09-21T23:45:34.623Z,6.25
2022-09-21T23:48:04.678Z,4.45
2022-09-21T23:50:34.787Z,5.25
2022-09-21T23:53:04.863Z,6.95
2022-09-21T23:55:35.206Z,3.50
2022-09-21T23:58:05.307Z,4.47
